sensor_id;sensor_type;location;lat;lon;timestamp;P1;durP1;ratioP1;P2;durP2;ratioP2
16743;SDS011;71724;-33.900;151.182;2023-11-25T00:01:14;4.72;;;2.03;;
16743;SDS011;71724;-33.900;151.182;2023-11-25T00:03:41;5.60;;;2.15;;
16743;SDS011;71724;-33.900;151.182;2023-11-25T00:06:09;3.25;;;2.03;;
16743;SDS011;71724;-33.900;151.182;2023-11-25T00:08:36;6.72;;;2.00;;
16743;SDS011;71724;-33.900;151.182;2023-11-25T00:11:04;5.47;;;2.00;;
16743;SDS011;71724;-33.900;151.182;2023-11-25T00:13:31;4.25;;;2.08;;
16743;SDS011;71724;-33.900;151.182;2023-11-25T00:15:58;4.65;;;2.03;;
16743;SDS011;71724;-33.900;151.182;2023-11-25T00:18:26;6.20;;;2.50;;
16743;SDS011;71724;-33.900;151.182;2023-11-25T00:20:53;5.05;;;2.10;;
16743;SDS011;71724;-33.900;151.182;2023-11-25T00:23:21;4.90;;;2.08;;
16743;SDS011;71724;-33.900;151.182;2023-11-25T00:25:49;4.57;;;2.35;;
16743;SDS011;71724;-33.900;151.182;2023-11-25T00:28:18;3.25;;;1.65;;
16743;SDS011;71724;-33.900;151.182;2023-11-25T00:30:46;6.75;;;2.30;;
16743;SDS011;71724;-33.900;151.182;2023-11-25T00:33:13;5.72;;;2.30;;
16743;SDS011;71724;-33.900;151.182;2023-11-25T00:35:41;5.10;;;2.00;;
16743;SDS011;71724;-33.900;151.182;2023-11-25T00:38:08;4.97;;;2.13;;
16743;SDS011;71724;-33.900;151.182;2023-11-25T00:40:36;6.00;;;1.88;;
16743;SDS011;71724;-33.900;151.182;2023-11-25T00:43:05;4.20;;;2.00;;
16743;SDS011;71724;-33.900;151.182;2023-11-25T00:45:33;3.50;;;1.80;;
16743;SDS011;71724;-33.900;151.182;2023-11-25T00:48:00;4.45;;;1.80;;
16743;SDS011;71724;-33.900;151.182;2023-11-25T00:50:27;2.85;;;1.90;;
16743;SDS011;71724;-33.900;151.182;2023-11-25T00:52:55;2.97;;;1.90;;
16743;SDS011;71724;-33.900;151.182;2023-11-25T00:55:22;3.85;;;1.85;;
16743;SDS011;71724;-33.900;151.182;2023-11-25T00:57:50;2.78;;;1.67;;
16743;SDS011;71724;-33.900;151.182;2023-11-25T01:00:17;3.88;;;1.90;;
16743;SDS011;71724;-33.900;151.182;2023-11-25T01:02:48;5.68;;;2.42;;
16743;SDS011;71724;-33.900;151.182;2023-11-25T01:05:16;2.38;;;1.48;;
16743;SDS011;71724;-33.900;151.182;2023-11-25T01:07:43;2.25;;;1.73;;
16743;SDS011;71724;-33.900;151.182;2023-11-25T01:10:10;4.28;;;1.90;;
16743;SDS011;71724;-33.900;151.182;2023-11-25T01:12:38;2.38;;;1.58;;
16743;SDS011;71724;-33.900;151.182;2023-11-25T01:15:05;2.28;;;1.63;;
16743;SDS011;71724;-33.900;151.182;2023-11-25T01:17:33;3.10;;;2.00;;
16743;SDS011;71724;-33.900;151.182;2023-11-25T01:20:00;4.22;;;1.77;;
16743;SDS011;71724;-33.900;151.182;2023-11-25T01:22:29;4.55;;;2.22;;
16743;SDS011;71724;-33.900;151.182;2023-11-25T01:24:56;3.10;;;2.10;;
16743;SDS011;71724;-33.900;151.182;2023-11-25T01:27:24;3.17;;;1.80;;
16743;SDS011;71724;-33.900;151.182;2023-11-25T01:29:51;4.75;;;2.22;;
16743;SDS011;71724;-33.900;151.182;2023-11-25T01:32:19;2.95;;;1.92;;
16743;SDS011;71724;-33.900;151.182;2023-11-25T01:34:46;2.55;;;1.70;;
16743;SDS011;71724;-33.900;151.182;2023-11-25T01:37:14;2.53;;;1.30;;
16743;SDS011;71724;-33.900;151.182;2023-11-25T01:39:43;1.40;;;1.30;;
16743;SDS011;71724;-33.900;151.182;2023-11-25T01:42:13;1.55;;;1.42;;
16743;SDS011;71724;-33.900;151.182;2023-11-25T01:44:40;1.95;;;1.55;;
16743;SDS011;71724;-33.900;151.182;2023-11-25T01:47:08;2.20;;;1.38;;
16743;SDS011;71724;-33.900;151.182;2023-11-25T01:49:36;4.22;;;1.77;;
16743;SDS011;71724;-33.900;151.182;2023-11-25T01:52:05;2.15;;;1.88;;
16743;SDS011;71724;-33.900;151.182;2023-11-25T01:54:34;2.80;;;1.80;;
16743;SDS011;71724;-33.900;151.182;2023-11-25T01:57:01;1.50;;;1.40;;
16743;SDS011;71724;-33.900;151.182;2023-11-25T01:59:30;3.85;;;1.75;;
16743;SDS011;71724;-33.900;151.182;2023-11-25T02:01:59;2.33;;;1.98;;
16743;SDS011;71724;-33.900;151.182;2023-11-25T02:04:27;2.38;;;1.80;;
16743;SDS011;71724;-33.900;151.182;2023-11-25T02:06:54;2.47;;;1.85;;
16743;SDS011;71724;-33.900;151.182;2023-11-25T02:09:21;2.38;;;2.13;;
16743;SDS011;71724;-33.900;151.182;2023-11-25T02:11:53;3.55;;;2.60;;
16743;SDS011;71724;-33.900;151.182;2023-11-25T02:14:22;4.53;;;3.45;;
16743;SDS011;71724;-33.900;151.182;2023-11-25T02:16:53;4.45;;;3.38;;
16743;SDS011;71724;-33.900;151.182;2023-11-25T02:19:21;3.58;;;2.88;;
16743;SDS011;71724;-33.900;151.182;2023-11-25T02:21:54;3.97;;;3.28;;
16743;SDS011;71724;-33.900;151.182;2023-11-25T02:24:21;3.80;;;2.90;;
16743;SDS011;71724;-33.900;151.182;2023-11-25T02:26:58;4.03;;;3.63;;
16743;SDS011;71724;-33.900;151.182;2023-11-25T02:29:26;9.77;;;4.93;;
16743;SDS011;71724;-33.900;151.182;2023-11-25T02:31:53;4.40;;;3.88;;
16743;SDS011;71724;-33.900;151.182;2023-11-25T02:34:27;6.32;;;4.25;;
16743;SDS011;71724;-33.900;151.182;2023-11-25T02:36:55;9.88;;;5.30;;
16743;SDS011;71724;-33.900;151.182;2023-11-25T02:39:26;6.53;;;4.35;;
16743;SDS011;71724;-33.900;151.182;2023-11-25T02:41:54;6.97;;;4.00;;
16743;SDS011;71724;-33.900;151.182;2023-11-25T02:44:21;6.13;;;4.18;;
16743;SDS011;71724;-33.900;151.182;2023-11-25T02:46:49;8.75;;;4.10;;
16743;SDS011;71724;-33.900;151.182;2023-11-25T02:49:17;7.65;;;3.92;;
16743;SDS011;71724;-33.900;151.182;2023-11-25T02:51:49;11.77;;;4.90;;
16743;SDS011;71724;-33.900;151.182;2023-11-25T02:54:17;4.22;;;3.58;;
16743;SDS011;71724;-33.900;151.182;2023-11-25T02:56:45;7.47;;;3.92;;
16743;SDS011;71724;-33.900;151.182;2023-11-25T02:59:13;8.45;;;4.50;;
16743;SDS011;71724;-33.900;151.182;2023-11-25T03:01:43;6.32;;;4.03;;
16743;SDS011;71724;-33.900;151.182;2023-11-25T03:04:19;8.02;;;3.72;;
16743;SDS011;71724;-33.900;151.182;2023-11-25T03:06:53;6.97;;;3.75;;
16743;SDS011;71724;-33.900;151.182;2023-11-25T03:09:21;6.85;;;3.38;;
16743;SDS011;71724;-33.900;151.182;2023-11-25T03:11:48;11.90;;;3.20;;
16743;SDS011;71724;-33.900;151.182;2023-11-25T03:14:16;5.70;;;2.88;;
16743;SDS011;71724;-33.900;151.182;2023-11-25T03:16:46;5.78;;;2.50;;
16743;SDS011;71724;-33.900;151.182;2023-11-25T03:19:15;5.68;;;2.50;;
16743;SDS011;71724;-33.900;151.182;2023-11-25T03:21:43;7.70;;;3.15;;
16743;SDS011;71724;-33.900;151.182;2023-11-25T03:24:11;7.65;;;3.05;;
16743;SDS011;71724;-33.900;151.182;2023-11-25T03:26:39;5.38;;;2.83;;
16743;SDS011;71724;-33.900;151.182;2023-11-25T03:29:09;8.50;;;3.10;;
16743;SDS011;71724;-33.900;151.182;2023-11-25T03:31:41;7.90;;;3.33;;
16743;SDS011;71724;-33.900;151.182;2023-11-25T03:34:09;7.28;;;2.80;;
16743;SDS011;71724;-33.900;151.182;2023-11-25T03:36:37;8.95;;;3.25;;
16743;SDS011;71724;-33.900;151.182;2023-11-25T03:39:04;6.07;;;2.72;;
16743;SDS011;71724;-33.900;151.182;2023-11-25T03:41:35;9.80;;;2.90;;
16743;SDS011;71724;-33.900;151.182;2023-11-25T03:44:03;6.25;;;2.72;;
16743;SDS011;71724;-33.900;151.182;2023-11-25T03:46:32;7.95;;;2.80;;
16743;SDS011;71724;-33.900;151.182;2023-11-25T03:48:59;5.47;;;2.70;;
16743;SDS011;71724;-33.900;151.182;2023-11-25T03:51:26;8.85;;;3.05;;
16743;SDS011;71724;-33.900;151.182;2023-11-25T03:53:55;6.30;;;2.40;;
16743;SDS011;71724;-33.900;151.182;2023-11-25T03:56:22;8.60;;;2.78;;
16743;SDS011;71724;-33.900;151.182;2023-11-25T03:58:49;7.20;;;2.40;;
16743;SDS011;71724;-33.900;151.182;2023-11-25T04:01:17;6.75;;;2.47;;
16743;SDS011;71724;-33.900;151.182;2023-11-25T04:03:44;6.18;;;1.90;;
16743;SDS011;71724;-33.900;151.182;2023-11-25T04:06:12;5.40;;;2.40;;
16743;SDS011;71724;-33.900;151.182;2023-11-25T04:08:39;6.53;;;2.47;;
16743;SDS011;71724;-33.900;151.182;2023-11-25T04:11:07;5.22;;;2.75;;
16743;SDS011;71724;-33.900;151.182;2023-11-25T04:13:35;4.18;;;2.17;;
16743;SDS011;71724;-33.900;151.182;2023-11-25T04:16:02;6.40;;;2.70;;
16743;SDS011;71724;-33.900;151.182;2023-11-25T04:18:31;4.75;;;2.00;;
16743;SDS011;71724;-33.900;151.182;2023-11-25T04:20:59;6.60;;;2.63;;
16743;SDS011;71724;-33.900;151.182;2023-11-25T04:23:26;4.53;;;2.15;;
16743;SDS011;71724;-33.900;151.182;2023-11-25T04:25:56;4.00;;;2.05;;
16743;SDS011;71724;-33.900;151.182;2023-11-25T04:28:23;3.85;;;2.10;;
16743;SDS011;71724;-33.900;151.182;2023-11-25T04:30:51;4.07;;;2.20;;
16743;SDS011;71724;-33.900;151.182;2023-11-25T04:33:18;6.50;;;2.25;;
16743;SDS011;71724;-33.900;151.182;2023-11-25T04:35:45;4.47;;;2.00;;
16743;SDS011;71724;-33.900;151.182;2023-11-25T04:38:13;3.28;;;1.67;;
16743;SDS011;71724;-33.900;151.182;2023-11-25T04:40:40;6.75;;;1.90;;
16743;SDS011;71724;-33.900;151.182;2023-11-25T04:43:07;3.35;;;2.00;;
16743;SDS011;71724;-33.900;151.182;2023-11-25T04:45:35;3.95;;;2.13;;
16743;SDS011;71724;-33.900;151.182;2023-11-25T04:48:02;4.00;;;2.00;;
16743;SDS011;71724;-33.900;151.182;2023-11-25T04:50:31;3.92;;;1.85;;
16743;SDS011;71724;-33.900;151.182;2023-11-25T04:53:00;4.07;;;2.13;;
16743;SDS011;71724;-33.900;151.182;2023-11-25T04:55:27;7.22;;;2.85;;
16743;SDS011;71724;-33.900;151.182;2023-11-25T04:57:54;4.47;;;2.38;;
16743;SDS011;71724;-33.900;151.182;2023-11-25T05:00:22;3.47;;;2.15;;
16743;SDS011;71724;-33.900;151.182;2023-11-25T05:02:49;5.88;;;2.88;;
16743;SDS011;71724;-33.900;151.182;2023-11-25T05:05:17;5.32;;;3.22;;
16743;SDS011;71724;-33.900;151.182;2023-11-25T05:07:45;6.15;;;3.92;;
16743;SDS011;71724;-33.900;151.182;2023-11-25T05:10:12;7.57;;;3.90;;
16743;SDS011;71724;-33.900;151.182;2023-11-25T05:12:40;8.18;;;4.13;;
16743;SDS011;71724;-33.900;151.182;2023-11-25T05:15:08;5.35;;;3.60;;
16743;SDS011;71724;-33.900;151.182;2023-11-25T05:17:37;6.13;;;4.85;;
16743;SDS011;71724;-33.900;151.182;2023-11-25T05:20:05;4.25;;;3.75;;
16743;SDS011;71724;-33.900;151.182;2023-11-25T05:22:44;8.40;;;5.78;;
16743;SDS011;71724;-33.900;151.182;2023-11-25T05:25:12;6.30;;;5.15;;
16743;SDS011;71724;-33.900;151.182;2023-11-25T05:27:39;6.22;;;4.50;;
16743;SDS011;71724;-33.900;151.182;2023-11-25T05:30:09;4.35;;;3.88;;
16743;SDS011;71724;-33.900;151.182;2023-11-25T05:32:40;6.25;;;5.53;;
16743;SDS011;71724;-33.900;151.182;2023-11-25T05:35:08;6.90;;;5.13;;
16743;SDS011;71724;-33.900;151.182;2023-11-25T05:37:36;6.30;;;5.05;;
16743;SDS011;71724;-33.900;151.182;2023-11-25T05:40:07;6.13;;;4.80;;
16743;SDS011;71724;-33.900;151.182;2023-11-25T05:42:37;5.97;;;4.40;;
16743;SDS011;71724;-33.900;151.182;2023-11-25T05:45:07;6.63;;;4.03;;
16743;SDS011;71724;-33.900;151.182;2023-11-25T05:47:36;6.20;;;4.32;;
16743;SDS011;71724;-33.900;151.182;2023-11-25T05:50:04;7.63;;;4.57;;
16743;SDS011;71724;-33.900;151.182;2023-11-25T05:52:39;6.15;;;4.13;;
16743;SDS011;71724;-33.900;151.182;2023-11-25T05:55:06;11.02;;;5.43;;
16743;SDS011;71724;-33.900;151.182;2023-11-25T05:57:35;6.68;;;4.32;;
16743;SDS011;71724;-33.900;151.182;2023-11-25T06:00:02;7.53;;;4.35;;
16743;SDS011;71724;-33.900;151.182;2023-11-25T06:02:30;6.82;;;4.18;;
16743;SDS011;71724;-33.900;151.182;2023-11-25T06:04:58;8.57;;;4.35;;
16743;SDS011;71724;-33.900;151.182;2023-11-25T06:07:25;4.45;;;3.85;;
16743;SDS011;71724;-33.900;151.182;2023-11-25T06:09:53;8.18;;;4.32;;
16743;SDS011;71724;-33.900;151.182;2023-11-25T06:12:20;6.22;;;4.50;;
16743;SDS011;71724;-33.900;151.182;2023-11-25T06:14:51;6.28;;;4.80;;
16743;SDS011;71724;-33.900;151.182;2023-11-25T06:17:21;6.25;;;4.55;;
16743;SDS011;71724;-33.900;151.182;2023-11-25T06:19:51;6.65;;;4.88;;
16743;SDS011;71724;-33.900;151.182;2023-11-25T06:22:19;9.02;;;4.47;;
16743;SDS011;71724;-33.900;151.182;2023-11-25T06:24:47;6.28;;;4.32;;
16743;SDS011;71724;-33.900;151.182;2023-11-25T06:27:14;7.38;;;4.28;;
16743;SDS011;71724;-33.900;151.182;2023-11-25T06:29:47;8.23;;;3.75;;
16743;SDS011;71724;-33.900;151.182;2023-11-25T06:32:15;7.38;;;4.15;;
16743;SDS011;71724;-33.900;151.182;2023-11-25T06:34:43;6.47;;;4.43;;
16743;SDS011;71724;-33.900;151.182;2023-11-25T06:37:10;9.65;;;5.18;;
16743;SDS011;71724;-33.900;151.182;2023-11-25T06:39:39;8.50;;;3.88;;
16743;SDS011;71724;-33.900;151.182;2023-11-25T06:42:07;9.27;;;3.95;;
16743;SDS011;71724;-33.900;151.182;2023-11-25T06:44:35;3.80;;;2.65;;
16743;SDS011;71724;-33.900;151.182;2023-11-25T06:47:02;11.25;;;3.05;;
16743;SDS011;71724;-33.900;151.182;2023-11-25T06:49:30;9.52;;;3.15;;
16743;SDS011;71724;-33.900;151.182;2023-11-25T06:52:01;8.18;;;3.17;;
16743;SDS011;71724;-33.900;151.182;2023-11-25T06:54:29;8.18;;;3.25;;
16743;SDS011;71724;-33.900;151.182;2023-11-25T06:56:57;4.80;;;2.92;;
16743;SDS011;71724;-33.900;151.182;2023-11-25T06:59:24;5.88;;;3.10;;
16743;SDS011;71724;-33.900;151.182;2023-11-25T07:01:55;6.85;;;3.45;;
16743;SDS011;71724;-33.900;151.182;2023-11-25T07:04:23;6.45;;;3.47;;
16743;SDS011;71724;-33.900;151.182;2023-11-25T07:06:50;4.85;;;3.20;;
16743;SDS011;71724;-33.900;151.182;2023-11-25T07:09:18;6.28;;;3.92;;
16743;SDS011;71724;-33.900;151.182;2023-11-25T07:11:45;7.18;;;3.40;;
16743;SDS011;71724;-33.900;151.182;2023-11-25T07:14:15;7.75;;;4.07;;
16743;SDS011;71724;-33.900;151.182;2023-11-25T07:16:43;7.70;;;3.75;;
16743;SDS011;71724;-33.900;151.182;2023-11-25T07:19:11;6.57;;;3.38;;
16743;SDS011;71724;-33.900;151.182;2023-11-25T07:21:39;4.15;;;3.25;;
16743;SDS011;71724;-33.900;151.182;2023-11-25T07:24:07;6.47;;;4.45;;
16743;SDS011;71724;-33.900;151.182;2023-11-25T07:26:34;4.53;;;4.00;;
16743;SDS011;71724;-33.900;151.182;2023-11-25T07:29:08;5.25;;;4.20;;
16743;SDS011;71724;-33.900;151.182;2023-11-25T07:31:36;4.85;;;4.13;;
16743;SDS011;71724;-33.900;151.182;2023-11-25T07:34:03;5.20;;;4.25;;
16743;SDS011;71724;-33.900;151.182;2023-11-25T07:36:31;6.55;;;4.68;;
16743;SDS011;71724;-33.900;151.182;2023-11-25T07:38:59;5.38;;;4.18;;
16743;SDS011;71724;-33.900;151.182;2023-11-25T07:41:27;6.20;;;4.65;;
16743;SDS011;71724;-33.900;151.182;2023-11-25T07:43:55;5.28;;;4.72;;
16743;SDS011;71724;-33.900;151.182;2023-11-25T07:46:22;6.90;;;4.82;;
16743;SDS011;71724;-33.900;151.182;2023-11-25T07:48:50;6.68;;;5.25;;
16743;SDS011;71724;-33.900;151.182;2023-11-25T07:51:17;8.20;;;6.00;;
16743;SDS011;71724;-33.900;151.182;2023-11-25T07:53:45;6.50;;;5.07;;
16743;SDS011;71724;-33.900;151.182;2023-11-25T07:56:13;7.03;;;5.00;;
16743;SDS011;71724;-33.900;151.182;2023-11-25T07:58:41;6.68;;;5.32;;
16743;SDS011;71724;-33.900;151.182;2023-11-25T08:01:09;6.68;;;5.68;;
16743;SDS011;71724;-33.900;151.182;2023-11-25T08:03:38;8.32;;;5.82;;
16743;SDS011;71724;-33.900;151.182;2023-11-25T08:06:05;7.82;;;5.15;;
16743;SDS011;71724;-33.900;151.182;2023-11-25T08:08:33;8.10;;;5.60;;
16743;SDS011;71724;-33.900;151.182;2023-11-25T08:11:00;12.57;;;6.70;;
16743;SDS011;71724;-33.900;151.182;2023-11-25T08:13:28;13.48;;;6.93;;
16743;SDS011;71724;-33.900;151.182;2023-11-25T08:15:56;7.80;;;5.82;;
16743;SDS011;71724;-33.900;151.182;2023-11-25T08:18:23;9.25;;;7.40;;
16743;SDS011;71724;-33.900;151.182;2023-11-25T08:20:51;9.15;;;7.63;;
16743;SDS011;71724;-33.900;151.182;2023-11-25T08:23:18;10.57;;;7.25;;
16743;SDS011;71724;-33.900;151.182;2023-11-25T08:25:45;8.00;;;6.90;;
16743;SDS011;71724;-33.900;151.182;2023-11-25T08:28:14;7.70;;;6.55;;
16743;SDS011;71724;-33.900;151.182;2023-11-25T08:30:41;10.95;;;6.80;;
16743;SDS011;71724;-33.900;151.182;2023-11-25T08:33:08;10.05;;;7.32;;
16743;SDS011;71724;-33.900;151.182;2023-11-25T08:35:36;11.18;;;8.07;;
16743;SDS011;71724;-33.900;151.182;2023-11-25T08:38:04;8.52;;;7.00;;
16743;SDS011;71724;-33.900;151.182;2023-11-25T08:40:31;8.98;;;6.75;;
16743;SDS011;71724;-33.900;151.182;2023-11-25T08:43:00;8.80;;;7.13;;
16743;SDS011;71724;-33.900;151.182;2023-11-25T08:45:34;12.45;;;7.22;;
16743;SDS011;71724;-33.900;151.182;2023-11-25T08:48:05;11.90;;;7.43;;
16743;SDS011;71724;-33.900;151.182;2023-11-25T08:50:32;8.15;;;7.35;;
16743;SDS011;71724;-33.900;151.182;2023-11-25T08:52:59;8.43;;;7.38;;
16743;SDS011;71724;-33.900;151.182;2023-11-25T08:55:27;7.50;;;6.80;;
16743;SDS011;71724;-33.900;151.182;2023-11-25T08:57:55;6.82;;;6.22;;
16743;SDS011;71724;-33.900;151.182;2023-11-25T09:00:24;7.82;;;7.05;;
16743;SDS011;71724;-33.900;151.182;2023-11-25T09:02:55;7.18;;;6.38;;
16743;SDS011;71724;-33.900;151.182;2023-11-25T09:05:23;8.18;;;7.32;;
16743;SDS011;71724;-33.900;151.182;2023-11-25T09:07:52;8.85;;;7.28;;
16743;SDS011;71724;-33.900;151.182;2023-11-25T09:10:24;8.52;;;7.55;;
16743;SDS011;71724;-33.900;151.182;2023-11-25T09:12:52;10.82;;;7.00;;
16743;SDS011;71724;-33.900;151.182;2023-11-25T09:15:20;7.90;;;6.80;;
16743;SDS011;71724;-33.900;151.182;2023-11-25T09:17:48;9.38;;;7.82;;
16743;SDS011;71724;-33.900;151.182;2023-11-25T09:20:16;9.93;;;7.28;;
16743;SDS011;71724;-33.900;151.182;2023-11-25T09:22:44;8.35;;;7.20;;
16743;SDS011;71724;-33.900;151.182;2023-11-25T09:25:11;8.57;;;7.65;;
16743;SDS011;71724;-33.900;151.182;2023-11-25T09:27:40;9.02;;;7.80;;
16743;SDS011;71724;-33.900;151.182;2023-11-25T09:30:10;8.93;;;7.90;;
16743;SDS011;71724;-33.900;151.182;2023-11-25T09:35:08;8.23;;;7.43;;
16743;SDS011;71724;-33.900;151.182;2023-11-25T09:37:41;8.90;;;7.97;;
16743;SDS011;71724;-33.900;151.182;2023-11-25T09:40:10;8.32;;;7.50;;
16743;SDS011;71724;-33.900;151.182;2023-11-25T09:42:42;7.57;;;6.82;;
16743;SDS011;71724;-33.900;151.182;2023-11-25T09:45:10;9.80;;;7.70;;
16743;SDS011;71724;-33.900;151.182;2023-11-25T09:47:40;10.02;;;7.68;;
16743;SDS011;71724;-33.900;151.182;2023-11-25T09:50:11;9.77;;;8.10;;
16743;SDS011;71724;-33.900;151.182;2023-11-25T09:52:42;10.35;;;7.45;;
16743;SDS011;71724;-33.900;151.182;2023-11-25T09:55:17;9.93;;;7.30;;
16743;SDS011;71724;-33.900;151.182;2023-11-25T09:57:45;8.85;;;7.55;;
16743;SDS011;71724;-33.900;151.182;2023-11-25T10:00:16;13.52;;;9.23;;
16743;SDS011;71724;-33.900;151.182;2023-11-25T10:02:44;11.93;;;8.63;;
16743;SDS011;71724;-33.900;151.182;2023-11-25T10:05:17;10.43;;;8.52;;
16743;SDS011;71724;-33.900;151.182;2023-11-25T10:07:44;10.23;;;7.82;;
16743;SDS011;71724;-33.900;151.182;2023-11-25T10:10:12;10.07;;;8.93;;
16743;SDS011;71724;-33.900;151.182;2023-11-25T10:12:42;20.17;;;16.30;;
16743;SDS011;71724;-33.900;151.182;2023-11-25T10:15:09;24.08;;;19.45;;
16743;SDS011;71724;-33.900;151.182;2023-11-25T10:17:37;24.35;;;20.15;;
16743;SDS011;71724;-33.900;151.182;2023-11-25T10:20:08;18.67;;;16.13;;
16743;SDS011;71724;-33.900;151.182;2023-11-25T10:22:46;17.10;;;14.15;;
16743;SDS011;71724;-33.900;151.182;2023-11-25T10:25:19;12.90;;;10.63;;
16743;SDS011;71724;-33.900;151.182;2023-11-25T10:27:47;9.68;;;8.68;;
16743;SDS011;71724;-33.900;151.182;2023-11-25T10:30:19;11.15;;;8.52;;
16743;SDS011;71724;-33.900;151.182;2023-11-25T10:32:48;14.88;;;8.90;;
16743;SDS011;71724;-33.900;151.182;2023-11-25T10:35:21;8.63;;;7.53;;
16743;SDS011;71724;-33.900;151.182;2023-11-25T10:37:52;10.10;;;7.43;;
16743;SDS011;71724;-33.900;151.182;2023-11-25T10:40:20;9.27;;;7.38;;
16743;SDS011;71724;-33.900;151.182;2023-11-25T10:42:48;12.20;;;8.07;;
16743;SDS011;71724;-33.900;151.182;2023-11-25T10:45:15;10.05;;;7.22;;
16743;SDS011;71724;-33.900;151.182;2023-11-25T10:47:44;11.82;;;7.63;;
16743;SDS011;71724;-33.900;151.182;2023-11-25T10:50:12;10.60;;;6.90;;
16743;SDS011;71724;-33.900;151.182;2023-11-25T10:52:43;11.13;;;6.68;;
16743;SDS011;71724;-33.900;151.182;2023-11-25T10:55:12;9.27;;;6.20;;
16743;SDS011;71724;-33.900;151.182;2023-11-25T10:57:40;10.68;;;7.03;;
16743;SDS011;71724;-33.900;151.182;2023-11-25T11:00:10;7.57;;;6.43;;
16743;SDS011;71724;-33.900;151.182;2023-11-25T11:02:47;10.70;;;6.03;;
16743;SDS011;71724;-33.900;151.182;2023-11-25T11:08:07;8.05;;;6.28;;
16743;SDS011;71724;-33.900;151.182;2023-11-25T11:10:58;9.90;;;6.07;;
16743;SDS011;71724;-33.900;151.182;2023-11-25T11:13:48;12.23;;;6.63;;
16743;SDS011;71724;-33.900;151.182;2023-11-25T11:19:07;10.80;;;6.35;;
16743;SDS011;71724;-33.900;151.182;2023-11-25T11:21:39;5.68;;;4.82;;
16743;SDS011;71724;-33.900;151.182;2023-11-25T11:24:13;9.32;;;5.80;;
16743;SDS011;71724;-33.900;151.182;2023-11-25T11:27:08;9.75;;;5.10;;
16743;SDS011;71724;-33.900;151.182;2023-11-25T11:30:13;8.40;;;5.07;;
16743;SDS011;71724;-33.900;151.182;2023-11-25T11:32:45;9.55;;;5.38;;
16743;SDS011;71724;-33.900;151.182;2023-11-25T11:35:14;9.85;;;5.32;;
16743;SDS011;71724;-33.900;151.182;2023-11-25T11:37:48;7.07;;;4.40;;
16743;SDS011;71724;-33.900;151.182;2023-11-25T11:40:19;7.13;;;4.50;;
16743;SDS011;71724;-33.900;151.182;2023-11-25T11:42:47;7.32;;;4.70;;
16743;SDS011;71724;-33.900;151.182;2023-11-25T11:45:15;8.02;;;5.20;;
16743;SDS011;71724;-33.900;151.182;2023-11-25T11:47:52;8.13;;;5.00;;
16743;SDS011;71724;-33.900;151.182;2023-11-25T11:50:29;5.78;;;4.60;;
16743;SDS011;71724;-33.900;151.182;2023-11-25T11:55:38;7.05;;;4.25;;
16743;SDS011;71724;-33.900;151.182;2023-11-25T11:58:13;8.25;;;4.32;;
16743;SDS011;71724;-33.900;151.182;2023-11-25T12:00:44;6.82;;;4.65;;
16743;SDS011;71724;-33.900;151.182;2023-11-25T12:03:14;7.32;;;4.28;;
16743;SDS011;71724;-33.900;151.182;2023-11-25T12:05:42;5.47;;;4.05;;
16743;SDS011;71724;-33.900;151.182;2023-11-25T12:08:10;8.38;;;3.80;;
16743;SDS011;71724;-33.900;151.182;2023-11-25T12:10:38;5.20;;;3.75;;
16743;SDS011;71724;-33.900;151.182;2023-11-25T12:13:05;8.90;;;4.65;;
16743;SDS011;71724;-33.900;151.182;2023-11-25T12:15:34;7.15;;;4.35;;
16743;SDS011;71724;-33.900;151.182;2023-11-25T12:18:02;8.05;;;4.28;;
16743;SDS011;71724;-33.900;151.182;2023-11-25T12:20:31;5.65;;;3.30;;
16743;SDS011;71724;-33.900;151.182;2023-11-25T12:23:00;5.45;;;3.55;;
16743;SDS011;71724;-33.900;151.182;2023-11-25T12:25:35;4.63;;;3.65;;
16743;SDS011;71724;-33.900;151.182;2023-11-25T12:28:09;4.40;;;3.38;;
16743;SDS011;71724;-33.900;151.182;2023-11-25T12:30:37;4.88;;;3.45;;
16743;SDS011;71724;-33.900;151.182;2023-11-25T12:33:05;5.70;;;3.35;;
16743;SDS011;71724;-33.900;151.182;2023-11-25T12:35:43;7.10;;;3.55;;
16743;SDS011;71724;-33.900;151.182;2023-11-25T12:38:11;3.35;;;3.05;;
16743;SDS011;71724;-33.900;151.182;2023-11-25T12:40:41;5.47;;;3.47;;
16743;SDS011;71724;-33.900;151.182;2023-11-25T12:43:11;6.18;;;3.40;;
16743;SDS011;71724;-33.900;151.182;2023-11-25T12:48:09;4.68;;;3.17;;
16743;SDS011;71724;-33.900;151.182;2023-11-25T12:53:29;4.13;;;2.53;;
16743;SDS011;71724;-33.900;151.182;2023-11-25T12:55:57;4.25;;;2.85;;
16743;SDS011;71724;-33.900;151.182;2023-11-25T12:58:25;6.90;;;3.40;;
16743;SDS011;71724;-33.900;151.182;2023-11-25T13:00:56;3.80;;;3.00;;
16743;SDS011;71724;-33.900;151.182;2023-11-25T13:03:26;6.72;;;2.80;;
16743;SDS011;71724;-33.900;151.182;2023-11-25T13:06:02;3.63;;;2.70;;
16743;SDS011;71724;-33.900;151.182;2023-11-25T13:08:32;4.20;;;2.33;;
16743;SDS011;71724;-33.900;151.182;2023-11-25T13:11:03;5.95;;;2.20;;
16743;SDS011;71724;-33.900;151.182;2023-11-25T13:13:34;3.55;;;2.20;;
16743;SDS011;71724;-33.900;151.182;2023-11-25T13:16:02;7.55;;;2.80;;
16743;SDS011;71724;-33.900;151.182;2023-11-25T13:18:31;4.35;;;2.40;;
16743;SDS011;71724;-33.900;151.182;2023-11-25T13:20:58;5.95;;;2.35;;
16743;SDS011;71724;-33.900;151.182;2023-11-25T13:23:33;4.55;;;2.40;;
16743;SDS011;71724;-33.900;151.182;2023-11-25T13:26:00;3.85;;;2.83;;
16743;SDS011;71724;-33.900;151.182;2023-11-25T13:28:28;4.50;;;2.42;;
16743;SDS011;71724;-33.900;151.182;2023-11-25T13:30:56;5.35;;;2.92;;
16743;SDS011;71724;-33.900;151.182;2023-11-25T13:33:23;2.65;;;2.45;;
16743;SDS011;71724;-33.900;151.182;2023-11-25T13:35:52;4.47;;;2.60;;
16743;SDS011;71724;-33.900;151.182;2023-11-25T13:38:20;3.38;;;2.40;;
16743;SDS011;71724;-33.900;151.182;2023-11-25T13:40:47;5.07;;;2.88;;
16743;SDS011;71724;-33.900;151.182;2023-11-25T13:43:15;3.88;;;2.60;;
16743;SDS011;71724;-33.900;151.182;2023-11-25T13:45:43;4.85;;;2.80;;
16743;SDS011;71724;-33.900;151.182;2023-11-25T13:48:11;3.38;;;2.50;;
16743;SDS011;71724;-33.900;151.182;2023-11-25T13:50:42;3.85;;;3.28;;
16743;SDS011;71724;-33.900;151.182;2023-11-25T13:53:09;3.80;;;2.58;;
16743;SDS011;71724;-33.900;151.182;2023-11-25T13:55:45;4.78;;;2.85;;
16743;SDS011;71724;-33.900;151.182;2023-11-25T13:58:14;6.07;;;2.50;;
16743;SDS011;71724;-33.900;151.182;2023-11-25T14:00:44;3.42;;;3.13;;
16743;SDS011;71724;-33.900;151.182;2023-11-25T14:03:12;5.43;;;4.38;;
16743;SDS011;71724;-33.900;151.182;2023-11-25T14:05:39;3.05;;;2.75;;
16743;SDS011;71724;-33.900;151.182;2023-11-25T14:08:12;3.67;;;2.63;;
16743;SDS011;71724;-33.900;151.182;2023-11-25T14:10:45;6.00;;;2.60;;
16743;SDS011;71724;-33.900;151.182;2023-11-25T14:13:12;4.82;;;2.35;;
16743;SDS011;71724;-33.900;151.182;2023-11-25T14:15:42;3.22;;;2.22;;
16743;SDS011;71724;-33.900;151.182;2023-11-25T14:18:10;4.38;;;2.67;;
16743;SDS011;71724;-33.900;151.182;2023-11-25T14:20:37;2.85;;;2.47;;
16743;SDS011;71724;-33.900;151.182;2023-11-25T14:23:05;2.88;;;2.08;;
16743;SDS011;71724;-33.900;151.182;2023-11-25T14:25:32;3.95;;;2.10;;
16743;SDS011;71724;-33.900;151.182;2023-11-25T14:28:00;2.50;;;2.13;;
16743;SDS011;71724;-33.900;151.182;2023-11-25T14:30:28;2.90;;;2.33;;
16743;SDS011;71724;-33.900;151.182;2023-11-25T14:32:58;4.45;;;2.10;;